Time;durP1;ratioP1;P1;durP2;ratioP2;P2;SDS_P1;SDS_P2;PMS_P1;PMS_P2;Temp;Humidity;BMP_temperature;BMP_pressure;BME280_temperature;BME280_humidity;BME280_pressure;Samples;Min_cycle;Max_cycle;Signal;HPM_P1;HPM_P2
2023/07/15 00:00:41;;;;;;;14.60;8.07;;;;;;;27.74;54.33;95418.97;4968179;28;20062;-79
2023/07/15 00:03:11;;;;;;;15.85;8.77;;;;;;;27.33;54.67;95422.84;5046770;28;20044;-79
2023/07/15 00:05:39;;;;;;;20.30;8.15;;;;;;;27.49;54.79;95440.50;4979512;28;20413;-78
2023/07/15 00:08:05;;;;;;;18.35;8.73;;;;;;;27.49;54.77;95412.47;4966182;28;20497;-79
2023/07/15 00:10:33;;;;;;;14.85;8.95;;;;;;;27.63;54.33;95437.16;4967605;28;20414;-79
2023/07/15 00:12:59;;;;;;;21.58;8.85;;;;;;;27.69;54.83;95445.78;4967608;28;20070;-78
2023/07/15 00:15:25;;;;;;;17.15;7.75;;;;;;;27.48;54.72;95419.88;4966377;28;20134;-79
2023/07/15 00:17:51;;;;;;;18.85;8.25;;;;;;;27.64;54.44;95452.34;4966316;28;20118;-79
2023/07/15 00:20:19;;;;;;;12.90;7.57;;;;;;;27.13;55.19;95425.75;4967521;28;20050;-78
2023/07/15 00:22:45;;;;;;;13.75;7.60;;;;;;;27.33;54.50;95422.84;4967334;28;20034;-78
2023/07/15 00:25:20;;;;;;;15.25;8.63;;;;;;;27.35;54.96;95415.88;4967893;28;20107;-79
2023/07/15 00:27:47;;;;;;;17.27;8.25;;;;;;;27.47;54.79;95442.81;4968461;28;20045;-79
2023/07/15 00:30:15;;;;;;;18.33;8.07;;;;;;;27.46;55.00;95440.50;4969606;28;20031;-79
2023/07/15 00:32:42;;;;;;;19.20;8.48;;;;;;;27.47;54.79;95455.66;4969424;28;20074;-79
2023/07/15 00:35:19;;;;;;;13.07;8.48;;;;;;;27.46;54.74;95441.28;4971425;28;20042;-79
2023/07/15 00:37:46;;;;;;;12.85;7.90;;;;;;;27.46;54.65;95441.28;4969733;28;20042;-79
2023/07/15 00:40:12;;;;;;;13.35;8.60;;;;;;;27.44;54.75;95450.97;4969660;28;20035;-79
2023/07/15 00:42:50;;;;;;;16.67;7.72;;;;;;;27.48;54.64;95449.84;4970378;28;20035;-79
2023/07/15 00:45:15;;;;;;;15.30;8.32;;;;;;;27.45;54.78;95449.81;4969464;28;20425;-79
2023/07/15 00:47:50;;;;;;;11.00;7.60;;;;;;;27.05;54.76;95401.56;4969467;28;20043;-79
2023/07/15 00:50:16;;;;;;;14.43;7.82;;;;;;;27.33;54.76;95453.56;4987475;28;20028;-79
2023/07/15 00:52:42;;;;;;;10.82;7.32;;;;;;;27.25;55.14;95452.72;4971888;28;20046;-79
2023/07/15 00:55:08;;;;;;;15.32;8.48;;;;;;;27.16;54.96;95421.50;4970939;28;20034;-79
2023/07/15 00:57:34;;;;;;;21.13;9.25;;;;;;;27.36;55.10;95460.22;4969574;28;20043;-79
2023/07/15 01:00:00;;;;;;;13.80;8.38;;;;;;;27.00;55.29;95416.31;4970948;28;20031;-79
2023/07/15 01:02:26;;;;;;;16.02;8.52;;;;;;;26.71;55.13;95373.56;4969273;28;20034;-79
2023/07/15 01:04:52;;;;;;;19.67;8.70;;;;;;;26.91;55.04;95395.97;4970680;28;20035;-79
2023/07/15 01:07:17;;;;;;;16.67;8.85;;;;;;;26.79;55.32;95394.25;4969290;28;20243;-79
2023/07/15 01:09:44;;;;;;;15.48;8.63;;;;;;;27.16;55.25;95457.66;4969169;28;20038;-79
2023/07/15 01:12:09;;;;;;;17.58;9.43;;;;;;;27.02;55.07;95441.19;4968995;28;20051;-79
2023/07/15 01:14:36;;;;;;;22.63;8.68;;;;;;;27.15;55.19;95469.75;4968952;28;20034;-79
2023/07/15 01:17:01;;;;;;;18.35;8.77;;;;;;;26.92;55.76;95455.47;4969439;28;20031;-78
2023/07/15 01:19:27;;;;;;;14.40;8.25;;;;;;;27.06;55.28;95469.25;4970887;28;20121;-78
2023/07/15 01:21:53;;;;;;;12.02;8.32;;;;;;;27.06;55.11;95471.97;4971112;28;20038;-78
2023/07/15 01:24:19;;;;;;;11.23;8.60;;;;;;;26.87;55.57;95464.69;4971243;28;20054;-78
2023/07/15 01:26:45;;;;;;;17.08;9.25;;;;;;;26.29;57.06;95452.69;4970698;28;20414;-78
2023/07/15 01:29:13;;;;;;;17.65;8.27;;;;;;;26.70;56.85;95467.97;4989330;28;20054;-78
2023/07/15 01:31:39;;;;;;;17.67;9.13;;;;;;;26.64;56.38;95453.16;4980937;28;20035;-78
2023/07/15 01:34:05;;;;;;;20.88;8.02;;;;;;;26.66;56.56;95452.78;5008947;28;20576;-78
2023/07/15 01:36:30;;;;;;;13.77;8.32;;;;;;;26.64;56.54;95442.25;4981205;28;20126;-78
2023/07/15 01:38:56;;;;;;;23.13;9.55;;;;;;;26.63;56.60;95448.06;4970228;28;20047;-77
2023/07/15 01:41:22;;;;;;;22.23;9.27;;;;;;;26.72;57.10;95475.78;4972589;28;20031;-77
2023/07/15 01:43:47;;;;;;;13.93;8.75;;;;;;;26.50;56.98;95434.72;4972207;28;20030;-78
2023/07/15 01:46:12;;;;;;;18.00;9.05;;;;;;;26.72;56.55;95465.69;4970622;28;20508;-77
2023/07/15 01:48:38;;;;;;;20.85;9.15;;;;;;;26.72;56.62;95460.25;4970917;28;20425;-77
2023/07/15 01:51:03;;;;;;;16.00;9.02;;;;;;;26.68;56.82;95459.44;5043922;28;20035;-79
2023/07/15 01:53:29;;;;;;;18.83;9.13;;;;;;;26.77;57.19;95478.19;4987755;28;20112;-79
2023/07/15 01:55:54;;;;;;;15.02;8.32;;;;;;;26.60;57.21;95455.03;4969880;28;20038;-79
2023/07/15 01:58:20;;;;;;;16.50;8.85;;;;;;;26.73;57.19;95475.41;4968539;28;20504;-79
2023/07/15 02:00:47;;;;;;;14.05;8.32;;;;;;;26.62;57.02;95454.69;4968190;28;20027;-79
2023/07/15 02:03:12;;;;;;;12.27;8.95;;;;;;;26.40;57.24;95437.28;4968647;28;20026;-79
2023/07/15 02:05:38;;;;;;;16.02;8.88;;;;;;;26.24;57.38;95414.91;4968061;28;20577;-79
2023/07/15 02:08:04;;;;;;;13.95;8.80;;;;;;;26.16;57.41;95407.81;4969877;28;20042;-80
2023/07/15 02:10:30;;;;;;;20.13;9.75;;;;;;;26.44;57.47;95463.38;4969386;28;20527;-79
2023/07/15 02:12:56;;;;;;;25.38;9.93;;;;;;;26.38;57.43;95447.75;4968162;28;20045;-79
2023/07/15 02:15:21;;;;;;;38.00;12.10;;;;;;;26.52;57.90;95483.31;4969806;28;20043;-79
2023/07/15 02:17:46;;;;;;;34.70;13.50;;;;;;;26.43;57.94;95474.63;4968348;28;20035;-79
2023/07/15 02:20:12;;;;;;;54.03;13.73;;;;;;;26.33;57.81;95459.72;4969562;28;20030;-79
2023/07/15 02:22:38;;;;;;;50.88;13.93;;;;;;;26.29;57.88;95449.97;4969631;28;20520;-79
2023/07/15 02:25:04;;;;;;;31.48;12.93;;;;;;;26.32;57.69;95455.44;4969281;28;20061;-79
2023/07/15 02:27:31;;;;;;;41.25;14.23;;;;;;;26.35;57.77;95456.63;4969322;28;20173;-79
2023/07/15 02:29:56;;;;;;;42.17;13.15;;;;;;;26.29;57.97;95458.13;4967946;28;20039;-79
2023/07/15 02:32:41;;;;;;;34.58;12.65;;;;;;;26.40;58.04;95472.63;4969434;28;20085;-79
2023/07/15 02:35:11;;;;;;;40.47;12.55;;;;;;;26.37;58.35;95479.59;4983545;28;20148;-79
2023/07/15 02:37:42;;;;;;;30.88;11.45;;;;;;;26.15;58.34;95455.94;4968662;28;20046;-79
2023/07/15 02:40:09;;;;;;;29.15;11.52;;;;;;;26.36;58.17;95475.31;4969066;28;20425;-79
2023/07/15 02:42:36;;;;;;;32.30;11.50;;;;;;;26.21;58.25;95445.53;4967900;28;20057;-79
2023/07/15 02:45:06;;;;;;;24.00;9.98;;;;;;;26.35;58.24;95479.19;4967766;28;20497;-79
2023/07/15 02:47:32;;;;;;;30.50;11.55;;;;;;;26.09;58.21;95449.25;4975778;28;20098;-79
2023/07/15 02:50:00;;;;;;;20.02;10.57;;;;;;;26.09;58.02;95447.31;4970141;28;20045;-79
2023/07/15 02:52:25;;;;;;;20.25;10.15;;;;;;;26.31;58.60;95491.16;4971825;28;20477;-79
2023/07/15 02:54:51;;;;;;;21.10;9.57;;;;;;;25.96;58.49;95428.84;4971990;28;20050;-79
2023/07/15 02:57:17;;;;;;;16.25;9.35;;;;;;;26.27;58.49;95479.44;4968777;28;20129;-79
2023/07/15 02:59:43;;;;;;;20.45;10.30;;;;;;;26.24;58.27;95472.00;4967822;28;20035;-79
2023/07/15 03:02:10;;;;;;;17.27;9.88;;;;;;;26.28;58.40;95489.94;4967073;28;20027;-79
2023/07/15 03:04:37;;;;;;;23.05;9.77;;;;;;;26.24;58.48;95482.88;4967609;28;20035;-79
2023/07/15 03:07:02;;;;;;;18.90;10.05;;;;;;;25.59;58.27;95383.28;4967281;28;20511;-79
2023/07/15 03:09:27;;;;;;;20.30;9.63;;;;;;;26.08;58.16;95470.22;4978850;28;20027;-79
2023/07/15 03:11:53;;;;;;;16.75;9.32;;;;;;;26.25;58.41;95481.69;4968618;28;20046;-79
2023/07/15 03:14:19;;;;;;;20.52;9.85;;;;;;;26.16;58.16;95476.53;4967363;28;20045;-79
2023/07/15 03:16:44;;;;;;;15.55;9.77;;;;;;;26.26;58.33;95488.75;4968839;28;20038;-79
2023/07/15 03:19:10;;;;;;;20.60;10.10;;;;;;;26.13;58.20;95485.41;4971348;28;20041;-79
2023/07/15 03:21:38;;;;;;;30.63;10.98;;;;;;;25.95;58.19;95460.69;4967333;28;20100;-79
2023/07/15 03:24:04;;;;;;;26.38;9.73;;;;;;;26.05;58.00;95470.94;4967407;28;20038;-79
2023/07/15 03:26:30;;;;;;;19.25;9.88;;;;;;;26.16;57.92;95490.13;4967371;28;20038;-79
2023/07/15 03:28:55;;;;;;;16.05;9.93;;;;;;;26.28;57.46;95500.03;4966742;28;20035;-79
2023/07/15 03:31:21;;;;;;;15.20;8.60;;;;;;;26.26;57.28;95491.47;4968265;28;20109;-79
2023/07/15 03:33:46;;;;;;;17.08;9.45;;;;;;;26.14;56.86;95482.34;4968225;28;20035;-79
2023/07/15 03:36:12;;;;;;;19.42;9.23;;;;;;;26.19;57.11;95475.78;4967348;28;20425;-79
2023/07/15 03:38:37;;;;;;;16.30;9.50;;;;;;;26.30;57.10;95492.31;4968243;28;20377;-79
2023/07/15 03:41:02;;;;;;;25.17;10.63;;;;;;;26.13;56.96;95471.84;4968130;28;20039;-79
2023/07/15 03:43:28;;;;;;;16.70;9.07;;;;;;;26.26;56.87;95499.63;4968709;28;20046;-79
2023/07/15 03:45:57;;;;;;;19.80;9.52;;;;;;;26.00;56.98;95457.66;4966825;28;20074;-79
2023/07/15 03:48:23;;;;;;;16.48;9.38;;;;;;;25.90;57.15;95444.69;4993818;28;20422;-79
2023/07/15 03:50:48;;;;;;;14.75;8.85;;;;;;;26.08;57.35;95472.94;5016639;28;20039;-79
2023/07/15 03:53:14;;;;;;;13.98;9.60;;;;;;;26.17;57.20;95494.41;4968618;28;20070;-79
2023/07/15 03:55:40;;;;;;;16.90;8.98;;;;;;;26.19;56.96;95488.59;4966751;28;20073;-79
2023/07/15 03:58:05;;;;;;;25.00;9.77;;;;;;;26.06;57.08;95477.94;4966838;28;20043;-79
2023/07/15 04:00:31;;;;;;;18.05;9.20;;;;;;;25.89;57.06;95450.50;4967592;28;20034;-79
2023/07/15 04:02:56;;;;;;;17.60;9.80;;;;;;;26.04;57.63;95482.16;4967614;28;20109;-79
2023/07/15 04:05:21;;;;;;;16.65;9.48;;;;;;;26.01;57.20;95483.69;4968099;28;20031;-79
2023/07/15 04:07:47;;;;;;;25.60;9.75;;;;;;;25.43;57.30;95398.09;4966762;28;20043;-79
2023/07/15 04:10:13;;;;;;;16.70;9.02;;;;;;;26.01;57.55;95493.78;4966005;28;20069;-79
2023/07/15 04:12:40;;;;;;;13.60;9.35;;;;;;;26.08;57.56;95507.47;4973850;28;20061;-79
2023/07/15 04:15:06;;;;;;;20.88;9.77;;;;;;;25.90;57.93;95484.66;4969684;28;20038;-79
2023/07/15 04:17:31;;;;;;;15.23;10.07;;;;;;;25.96;57.60;95497.56;4966421;28;20026;-79
2023/07/15 04:19:56;;;;;;;16.83;9.68;;;;;;;26.05;57.67;95513.63;4967673;28;20096;-79
2023/07/15 04:22:23;;;;;;;15.20;9.80;;;;;;;25.84;57.86;95513.28;4968181;28;20536;-79
2023/07/15 04:24:49;;;;;;;18.88;10.18;;;;;;;25.68;58.10;95499.81;4967810;28;20038;-79
2023/07/15 04:27:14;;;;;;;15.25;10.13;;;;;;;25.85;57.77;95509.44;4998872;28;20123;-79
2023/07/15 04:29:40;;;;;;;15.20;8.95;;;;;;;25.85;57.62;95498.56;5027779;28;20130;-79
2023/07/15 04:32:05;;;;;;;15.32;9.68;;;;;;;25.92;57.61;95526.63;4967871;28;20027;-79
2023/07/15 04:34:31;;;;;;;18.98;10.52;;;;;;;26.00;57.79;95535.69;4966251;28;20116;-79
2023/07/15 04:36:56;;;;;;;20.30;10.52;;;;;;;25.99;57.35;95517.81;4967779;28;20476;-79
2023/07/15 04:39:22;;;;;;;15.23;9.80;;;;;;;26.16;57.31;95538.28;5007100;28;20030;-79
2023/07/15 04:41:47;;;;;;;19.58;10.85;;;;;;;26.13;57.17;95526.19;4967325;28;20105;-79
2023/07/15 04:44:12;;;;;;;15.70;9.40;;;;;;;26.15;56.87;95518.47;4971993;28;20026;-79
2023/07/15 04:46:38;;;;;;;24.45;10.50;;;;;;;26.23;56.86;95525.59;4970249;28;20077;-79
2023/07/15 04:49:04;;;;;;;16.35;10.45;;;;;;;26.31;57.33;95540.09;4966024;28;20052;-79
2023/07/15 04:51:29;;;;;;;21.35;11.30;;;;;;;26.25;57.21;95525.19;4966133;28;20031;-79
2023/07/15 04:53:56;;;;;;;20.48;10.93;;;;;;;26.33;57.04;95541.28;5048121;28;20096;-79
2023/07/15 04:56:21;;;;;;;18.63;10.80;;;;;;;26.27;56.89;95542.75;4967580;28;20034;-79
2023/07/15 04:58:47;;;;;;;16.45;10.77;;;;;;;26.01;57.28;95507.38;4967468;28;20038;-79
2023/07/15 05:01:13;;;;;;;22.52;11.15;;;;;;;26.08;57.18;95521.84;4965729;28;20481;-79
2023/07/15 05:03:38;;;;;;;21.13;11.38;;;;;;;25.97;56.95;95504.59;4967727;28;20046;-79
2023/07/15 05:06:04;;;;;;;20.50;11.18;;;;;;;26.10;57.08;95521.47;4967595;28;20141;-79
2023/07/15 05:08:29;;;;;;;21.30;11.40;;;;;;;26.14;56.95;95520.41;4968908;28;20072;-79
2023/07/15 05:10:55;;;;;;;18.02;11.07;;;;;;;26.14;57.43;95506.81;4976215;28;20051;-79
2023/07/15 05:13:20;;;;;;;16.77;10.48;;;;;;;26.23;57.34;95524.78;4965916;28;20104;-79
2023/07/15 05:15:46;;;;;;;19.92;11.70;;;;;;;26.37;57.42;95533.19;4969365;28;20035;-79
2023/07/15 05:18:11;;;;;;;18.63;11.15;;;;;;;26.42;57.09;95536.38;4969088;28;20069;-79
2023/07/15 05:20:37;;;;;;;16.63;11.15;;;;;;;26.18;57.10;95487.81;4989143;28;20035;-79
2023/07/15 05:23:03;;;;;;;23.27;11.00;;;;;;;26.36;57.00;95515.31;4970192;28;20472;-79
2023/07/15 05:25:30;;;;;;;21.02;11.27;;;;;;;26.31;56.86;95493.88;4968893;28;20035;-79
2023/07/15 05:27:56;;;;;;;24.63;11.57;;;;;;;26.57;56.76;95517.53;4970593;28;20105;-79
2023/07/15 05:30:22;;;;;;;19.38;11.80;;;;;;;26.49;56.84;95503.84;4984610;28;20420;-79
2023/07/15 05:32:48;;;;;;;21.75;11.32;;;;;;;26.74;56.48;95534.13;4968457;28;20591;-79
2023/07/15 05:35:14;;;;;;;22.10;10.75;;;;;;;26.50;56.18;95493.75;4970570;28;20409;-79
2023/07/15 05:37:40;;;;;;;19.45;10.57;;;;;;;26.77;56.22;95530.69;4968630;28;20109;-79
2023/07/15 05:40:09;;;;;;;19.35;10.90;;;;;;;26.81;56.43;95528.78;4968828;28;20358;-79
2023/07/15 05:42:45;;;;;;;19.60;11.02;;;;;;;26.02;56.47;95409.16;4968483;28;20457;-79
2023/07/15 05:45:12;;;;;;;16.80;10.65;;;;;;;26.91;55.98;95541.00;4970319;28;20034;-79
2023/07/15 05:47:38;;;;;;;17.13;10.45;;;;;;;26.76;55.68;95515.50;4970168;28;20445;-79
2023/07/15 05:50:06;;;;;;;17.98;11.00;;;;;;;26.72;56.05;95530.97;4970297;28;20037;-79
2023/07/15 05:52:31;;;;;;;23.55;10.77;;;;;;;26.83;55.62;95526.47;4968029;28;20034;-79
2023/07/15 05:54:57;;;;;;;16.92;11.45;;;;;;;26.86;55.83;95541.25;4969557;28;20033;-79
2023/07/15 05:57:23;;;;;;;18.00;11.18;;;;;;;26.95;55.10;95532.84;4970065;28;20034;-79
2023/07/15 05:59:48;;;;;;;27.30;11.23;;;;;;;26.64;54.96;95496.66;4968413;28;20096;-79
2023/07/15 06:02:14;;;;;;;19.95;11.23;;;;;;;26.84;55.47;95527.25;4968554;28;20029;-79
2023/07/15 06:04:39;;;;;;;26.95;11.07;;;;;;;26.93;54.92;95530.50;4968029;28;20084;-79
2023/07/15 06:07:05;;;;;;;22.80;11.45;;;;;;;26.83;55.40;95515.59;4968370;28;20114;-79
2023/07/15 06:09:30;;;;;;;18.50;10.55;;;;;;;26.96;55.44;95531.72;4968455;28;20038;-79
2023/07/15 06:11:56;;;;;;;21.50;11.75;;;;;;;26.97;55.36;95536.00;4969322;28;20046;-79
2023/07/15 06:14:21;;;;;;;26.27;11.38;;;;;;;27.11;55.53;95547.06;4967987;28;20466;-79
2023/07/15 06:16:46;;;;;;;20.30;10.57;;;;;;;26.87;55.57;95508.25;4969593;28;20066;-79
2023/07/15 06:19:12;;;;;;;21.45;11.20;;;;;;;26.91;55.49;95513.78;4968238;28;20088;-79
2023/07/15 06:21:39;;;;;;;19.73;10.90;;;;;;;27.14;55.19;95541.69;4969685;28;20037;-79
2023/07/15 06:24:05;;;;;;;16.80;10.15;;;;;;;26.52;54.88;95434.34;4969490;28;20584;-79
2023/07/15 06:26:31;;;;;;;19.88;11.00;;;;;;;27.19;55.08;95538.63;4971246;28;20034;-79
2023/07/15 06:28:56;;;;;;;16.90;11.48;;;;;;;27.10;54.97;95510.88;4973194;28;20057;-79
2023/07/15 06:31:22;;;;;;;20.50;11.73;;;;;;;27.11;55.19;95503.50;4970119;28;20073;-79
2023/07/15 06:33:48;;;;;;;19.08;10.73;;;;;;;27.23;55.35;95525.06;4968000;28;20484;-79
2023/07/15 06:36:14;;;;;;;20.02;11.65;;;;;;;27.30;55.25;95516.19;4968110;28;20034;-79
2023/07/15 06:38:39;;;;;;;21.27;10.25;;;;;;;27.44;55.26;95530.72;4969318;28;20035;-79
2023/07/15 06:41:05;;;;;;;20.33;10.18;;;;;;;27.31;55.10;95504.91;4967777;28;20035;-79
2023/07/15 06:43:31;;;;;;;19.38;11.18;;;;;;;27.30;55.03;95508.78;4967842;28;20488;-79
2023/07/15 06:45:56;;;;;;;21.05;10.55;;;;;;;27.43;54.56;95531.88;4967530;28;20107;-79
2023/07/15 06:48:22;;;;;;;20.58;10.55;;;;;;;27.32;54.45;95494.78;4968313;28;20030;-79
2023/07/15 06:50:48;;;;;;;15.70;9.45;;;;;;;27.54;53.82;95518.44;4967576;28;20084;-79
2023/07/15 06:53:14;;;;;;;21.38;10.70;;;;;;;27.59;54.11;95512.63;5024358;28;20024;-79
2023/07/15 06:55:39;;;;;;;23.60;10.20;;;;;;;27.69;53.60;95514.69;4973916;28;20030;-79
2023/07/15 06:58:06;;;;;;;18.48;10.80;;;;;;;27.70;53.42;95496.38;4967744;28;20045;-79
2023/07/15 07:00:32;;;;;;;24.20;10.95;;;;;;;27.84;53.17;95516.38;4967594;28;20039;-79
2023/07/15 07:02:58;;;;;;;18.67;10.85;;;;;;;27.81;52.72;95506.22;4967618;28;20523;-79
2023/07/15 07:05:25;;;;;;;21.02;10.70;;;;;;;27.91;52.46;95519.16;4967286;28;20042;-79
2023/07/15 07:07:51;;;;;;;23.80;12.05;;;;;;;27.72;53.34;95489.38;4967483;28;20416;-79
2023/07/15 07:10:16;;;;;;;20.20;9.68;;;;;;;27.91;53.20;95499.31;4967328;28;20062;-79
2023/07/15 07:12:42;;;;;;;21.73;10.30;;;;;;;27.83;52.93;95492.22;4967375;28;20030;-79
2023/07/15 07:15:08;;;;;;;16.10;10.05;;;;;;;28.06;52.66;95520.06;4966844;28;20019;-80
2023/07/15 07:17:33;;;;;;;22.98;10.23;;;;;;;27.99;52.63;95514.56;4968820;28;20027;-79
2023/07/15 07:19:59;;;;;;;22.17;11.27;;;;;;;28.03;53.13;95524.31;4969066;28;20041;-79
2023/07/15 07:22:24;;;;;;;17.90;10.02;;;;;;;28.12;52.36;95513.09;4968988;28;20035;-79
2023/07/15 07:24:51;;;;;;;17.52;10.55;;;;;;;28.03;52.61;95499.00;4968531;28;20088;-79
2023/07/15 07:27:17;;;;;;;20.35;9.85;;;;;;;28.30;52.81;95524.19;4950858;28;20053;-79
2023/07/15 07:29:43;;;;;;;21.13;10.95;;;;;;;28.28;52.74;95524.56;4997845;28;20466;-79
2023/07/15 07:32:08;;;;;;;14.65;8.95;;;;;;;28.21;51.86;95524.50;4966893;28;20493;-79
2023/07/15 07:34:34;;;;;;;16.95;10.35;;;;;;;28.12;51.54;95501.41;4967132;28;20517;-79
2023/07/15 07:36:59;;;;;;;26.88;10.13;;;;;;;28.08;50.96;95463.19;4966019;28;20087;-81
2023/07/15 07:39:25;;;;;;;17.25;10.10;;;;;;;28.35;52.04;95507.47;4967028;28;20035;-80
2023/07/15 07:41:50;;;;;;;16.10;10.52;;;;;;;28.32;51.96;95491.84;4966986;28;20031;-79
2023/07/15 07:44:16;;;;;;;23.83;10.77;;;;;;;28.40;52.70;95493.44;4966580;28;20030;-80
2023/07/15 07:46:41;;;;;;;18.35;9.77;;;;;;;28.39;51.85;95489.16;4966624;28;20038;-79
2023/07/15 07:49:07;;;;;;;15.90;10.23;;;;;;;28.43;50.23;95495.44;4967020;28;20054;-79
2023/07/15 07:51:32;;;;;;;21.00;10.43;;;;;;;28.62;51.49;95503.34;4966560;28;20429;-79
2023/07/15 07:53:58;;;;;;;20.05;10.95;;;;;;;28.78;52.66;95516.69;4968129;28;20554;-79
2023/07/15 07:56:24;;;;;;;17.65;10.07;;;;;;;28.77;52.74;95505.00;4966350;28;20026;-79
2023/07/15 07:58:59;;;;;;;21.90;10.95;;;;;;;28.88;51.64;95518.72;4971666;28;20061;-79
2023/07/15 08:01:25;;;;;;;18.40;10.32;;;;;;;28.77;51.22;95487.84;4966674;28;20540;-79
2023/07/15 08:03:50;;;;;;;18.85;11.10;;;;;;;28.75;50.90;95490.16;4966669;28;20069;-79
2023/07/15 08:06:17;;;;;;;23.60;10.88;;;;;;;29.02;50.60;95513.31;4967700;28;20055;-79
2023/07/15 08:08:42;;;;;;;19.67;10.02;;;;;;;28.75;50.63;95469.16;4966004;28;20053;-79
2023/07/15 08:11:08;;;;;;;15.85;10.07;;;;;;;28.96;50.44;95489.50;4966340;28;20085;-79
2023/07/15 08:13:33;;;;;;;18.83;10.35;;;;;;;29.01;49.85;95492.63;4966603;28;20479;-79
2023/07/15 08:15:59;;;;;;;19.27;9.45;;;;;;;28.62;50.03;95442.50;5001570;28;20486;-79
2023/07/15 08:18:25;;;;;;;17.80;9.30;;;;;;;28.99;50.34;95488.75;4967615;28;20038;-79
2023/07/15 08:20:51;;;;;;;15.32;9.27;;;;;;;29.06;48.77;95497.75;4966596;28;20035;-79
2023/07/15 08:23:17;;;;;;;15.25;8.82;;;;;;;28.90;49.85;95471.94;4956709;28;20043;-79
2023/07/15 08:25:42;;;;;;;14.48;9.18;;;;;;;29.10;49.16;95487.59;4966516;28;20037;-79
2023/07/15 08:28:08;;;;;;;20.73;8.10;;;;;;;28.99;48.13;95475.84;4967709;28;20470;-79
2023/07/15 08:30:36;;;;;;;21.33;9.45;;;;;;;29.34;48.86;95518.13;4967298;28;20042;-79
2023/07/15 08:33:06;;;;;;;19.67;8.88;;;;;;;29.12;48.66;95473.56;4966593;28;20034;-79
2023/07/15 08:35:32;;;;;;;13.95;8.80;;;;;;;29.32;48.53;95504.84;4966245;28;20027;-79
2023/07/15 08:37:58;;;;;;;18.58;9.15;;;;;;;29.49;48.43;95511.56;4966140;28;20508;-79
2023/07/15 08:40:26;;;;;;;17.95;8.20;;;;;;;29.49;50.15;95503.38;4967646;28;20145;-79
2023/07/15 08:42:53;;;;;;;13.73;9.20;;;;;;;29.35;49.07;95479.53;4966342;28;20195;-79
2023/07/15 08:45:19;;;;;;;17.52;8.88;;;;;;;29.47;48.73;95478.38;4966330;28;20047;-79
2023/07/15 08:47:46;;;;;;;17.48;9.57;;;;;;;29.62;48.71;95493.63;4967094;28;20038;-79
2023/07/15 08:50:15;;;;;;;18.52;8.98;;;;;;;29.66;48.14;95510.81;4970922;28;20115;-80
2023/07/15 08:52:45;;;;;;;21.02;10.52;;;;;;;29.74;47.83;95509.66;4969575;28;20428;-80
2023/07/15 08:55:12;;;;;;;14.52;9.77;;;;;;;29.66;48.07;95483.50;4969607;28;20045;-80
2023/07/15 08:57:38;;;;;;;18.50;8.98;;;;;;;29.67;48.13;95501.47;4975701;28;20030;-79
2023/07/15 09:00:08;;;;;;;19.90;10.13;;;;;;;29.65;47.79;95470.22;4969070;28;20051;-79
2023/07/15 09:02:37;;;;;;;16.75;9.43;;;;;;;29.84;48.30;95497.94;4971034;28;20023;-80
2023/07/15 09:05:05;;;;;;;17.77;10.30;;;;;;;29.98;48.37;95508.16;4970783;28;20038;-80
2023/07/15 09:07:30;;;;;;;19.77;10.15;;;;;;;30.12;49.07;95510.91;4970977;28;20039;-80
2023/07/15 09:09:56;;;;;;;24.90;10.07;;;;;;;30.08;49.55;95490.16;4970202;28;20096;-80
2023/07/15 09:12:23;;;;;;;22.38;9.98;;;;;;;30.03;47.27;95474.16;4974973;28;20547;-80
2023/07/15 09:14:48;;;;;;;20.02;9.95;;;;;;;30.02;48.90;95489.00;4970755;28;20142;-80
2023/07/15 09:17:20;;;;;;;14.82;9.95;;;;;;;30.18;48.01;95497.59;4970647;28;20134;-79
2023/07/15 09:19:46;;;;;;;18.05;9.85;;;;;;;30.06;48.03;95463.22;4970459;28;20039;-80
2023/07/15 09:22:12;;;;;;;19.00;9.65;;;;;;;30.34;48.29;95494.47;4969069;28;20104;-80
2023/07/15 09:24:38;;;;;;;17.52;9.82;;;;;;;30.23;46.28;95489.78;4969132;28;20061;-80
2023/07/15 09:27:04;;;;;;;21.33;10.10;;;;;;;30.24;46.51;95496.03;4969090;28;20031;-80
2023/07/15 09:29:30;;;;;;;22.27;9.98;;;;;;;30.07;46.14;95458.53;4969987;28;20035;-79
2023/07/15 09:31:57;;;;;;;19.08;10.80;;;;;;;30.15;46.36;95447.19;4968536;28;20417;-80
2023/07/15 09:34:24;;;;;;;19.02;10.55;;;;;;;30.37;47.89;95477.25;4969204;28;20451;-80
2023/07/15 09:36:50;;;;;;;21.50;10.82;;;;;;;30.41;48.19;95459.66;4969170;28;20043;-80
2023/07/15 09:39:22;;;;;;;18.40;10.00;;;;;;;30.62;47.35;95481.53;4969026;28;20420;-80
2023/07/15 09:42:07;;;;;;;25.25;10.75;;;;;;;30.61;46.86;95479.97;4968621;28;20516;-80
2023/07/15 09:44:37;;;;;;;23.13;11.65;;;;;;;30.50;47.88;95453.78;4970084;28;20034;-80
2023/07/15 09:47:04;;;;;;;18.52;10.80;;;;;;;30.69;46.63;95461.56;4968808;28;20039;-80
2023/07/15 09:49:30;;;;;;;21.35;11.05;;;;;;;30.79;45.68;95482.66;4970000;28;20042;-80
2023/07/15 09:51:57;;;;;;;20.10;10.77;;;;;;;31.49;43.89;95474.56;4970013;28;20125;-80
2023/07/15 09:54:25;;;;;;;24.58;10.98;;;;;;;32.35;43.52;95453.53;4968824;28;20107;-80
2023/07/15 09:56:56;;;;;;;17.25;10.27;;;;;;;33.25;41.65;95447.47;4969723;28;20042;-80
2023/07/15 09:59:23;;;;;;;15.75;10.48;;;;;;;34.20;40.37;95427.94;4968168;28;20107;-80
2023/07/15 10:01:54;;;;;;;17.35;10.07;;;;;;;35.20;36.96;95449.66;4969550;28;20363;-80
2023/07/15 10:04:32;;;;;;;20.40;9.80;;;;;;;35.84;35.47;95426.19;4969602;28;20035;-80
2023/07/15 10:07:00;;;;;;;20.30;10.15;;;;;;;36.71;35.21;95448.47;4977111;28;20038;-80
2023/07/15 10:09:26;;;;;;;15.82;8.80;;;;;;;37.24;34.36;95449.75;4968398;28;20471;-80
2023/07/15 10:11:52;;;;;;;19.05;9.18;;;;;;;38.00;33.00;95465.59;4969404;28;20072;-81
2023/07/15 10:14:19;;;;;;;16.48;8.60;;;;;;;38.39;32.39;95461.56;4968260;28;20031;-80
2023/07/15 10:16:45;;;;;;;13.63;8.40;;;;;;;38.77;31.24;95442.84;4968205;28;20034;-80
2023/07/15 10:19:39;;;;;;;15.43;8.68;;;;;;;39.24;29.43;95461.38;4968223;28;20417;-81
2023/07/15 10:22:05;;;;;;;16.85;8.75;;;;;;;39.33;29.63;95453.09;4967604;28;20042;-81
2023/07/15 10:24:33;;;;;;;20.10;9.35;;;;;;;39.57;29.62;95445.88;4968551;28;20099;-80
2023/07/15 10:27:00;;;;;;;20.52;8.32;;;;;;;39.71;30.00;95425.88;5017263;28;20185;-80
2023/07/15 10:29:25;;;;;;;17.83;8.55;;;;;;;40.19;30.32;95461.66;4969859;28;20416;-81
2023/07/15 10:32:26;;;;;;;19.90;8.85;;;;;;;40.34;28.19;95451.53;4967740;28;20035;-81
2023/07/15 10:34:52;;;;;;;15.25;9.13;;;;;;;40.52;28.08;95448.00;4890769;28;20120;-80
2023/07/15 10:37:19;;;;;;;12.45;8.75;;;;;;;40.56;29.09;95449.41;4973438;28;20492;-81
2023/07/15 10:39:46;;;;;;;19.98;8.13;;;;;;;40.59;27.95;95437.34;4963424;28;20046;-81
2023/07/15 10:42:16;;;;;;;17.40;7.80;;;;;;;40.70;27.97;95451.59;4967560;28;20038;-81
2023/07/15 10:44:53;;;;;;;13.48;7.90;;;;;;;40.75;28.19;95453.75;4967919;28;20034;-80
2023/07/15 10:47:20;;;;;;;13.88;7.90;;;;;;;40.64;27.39;95445.09;4958355;28;20394;-81
2023/07/15 10:49:47;;;;;;;15.88;8.35;;;;;;;40.38;29.11;95432.69;4967992;28;20511;-80
2023/07/15 10:52:23;;;;;;;24.63;9.30;;;;;;;40.46;28.37;95456.94;4968942;28;20031;-80
2023/07/15 10:54:48;;;;;;;15.57;8.50;;;;;;;40.64;28.20;95433.97;4967752;28;20088;-81
2023/07/15 10:57:15;;;;;;;17.50;8.32;;;;;;;40.67;27.87;95427.47;4969086;28;20456;-81
2023/07/15 10:59:50;;;;;;;20.48;8.30;;;;;;;40.38;26.76;95414.03;4967912;28;20180;-81
2023/07/15 11:02:15;;;;;;;12.77;8.40;;;;;;;40.47;28.48;95416.03;4969020;28;20072;-81
2023/07/15 11:04:41;;;;;;;15.38;7.88;;;;;;;40.39;28.70;95404.47;4988968;28;20126;-81
2023/07/15 11:07:09;;;;;;;13.57;8.48;;;;;;;40.74;28.50;95435.50;4997826;28;20031;-80
2023/07/15 11:09:39;;;;;;;13.60;9.18;;;;;;;40.68;27.92;95414.34;4967434;28;20050;-80
2023/07/15 11:12:10;;;;;;;17.80;8.70;;;;;;;40.92;27.30;95412.47;4959089;28;20055;-81
2023/07/15 11:14:42;;;;;;;17.48;8.38;;;;;;;40.83;27.87;95404.16;4968592;28;20528;-81
2023/07/15 11:17:09;;;;;;;13.13;8.10;;;;;;;41.06;27.19;95411.06;4967425;28;20058;-81
2023/07/15 11:19:34;;;;;;;17.55;8.30;;;;;;;41.18;26.63;95408.16;4967553;28;20026;-80